Grover, Nebraska
Current Conditions -  °F | °C
As of 11:29 AM on Thursday 23 Oct 2014 (Local Time) from KLNK Reporting Station
Haze Haze  
Wind Chill: 56°   Ceiling: 200
Heat Index: 56°   Visibility: 1mi
Dew Point: 55°   Wind: 3mph
Humidity: 97%   Direction: 200°SSW
Pressure: 30.1"   Gusts: NA
Location:  40.7413°N, 97.0887°W
Report Text: KLNK 231629Z 20003KT 1SM BR OVC002 13/13 A3010 RMK AO2 T01330128 RVRNO
Loading
Personal Weather Stations






























Interactive Weather Map
Tropical Storm Tracking
New forecast layout! Learn more

10-Day Weather Forecast

Advertisements
Track Severe Weather on mobile